sensor_id;sensor_type;location;lat;lon;timestamp;temperature;humidity
59146;DHT22;44928;53.074;6.646;2023-02-28T00:01:16;3.70;99.90
59146;DHT22;44928;53.074;6.646;2023-02-28T00:03:42;3.70;99.90
59146;DHT22;44928;53.074;6.646;2023-02-28T00:06:09;3.70;99.90
59146;DHT22;44928;53.074;6.646;2023-02-28T00:08:38;3.70;99.90
59146;DHT22;44928;53.074;6.646;2023-02-28T00:11:10;3.70;99.90
59146;DHT22;44928;53.074;6.646;2023-02-28T00:13:37;3.70;99.90
59146;DHT22;44928;53.074;6.646;2023-02-28T00:16:07;3.80;99.90
59146;DHT22;44928;53.074;6.646;2023-02-28T00:18:33;3.70;99.90
59146;DHT22;44928;53.074;6.646;2023-02-28T00:20:59;3.70;99.90
59146;DHT22;44928;53.074;6.646;2023-02-28T00:23:26;3.70;99.90
59146;DHT22;44928;53.074;6.646;2023-02-28T00:25:51;3.70;99.90
59146;DHT22;44928;53.074;6.646;2023-02-28T00:28:18;3.70;99.90
59146;DHT22;44928;53.074;6.646;2023-02-28T00:30:44;3.70;99.90
59146;DHT22;44928;53.074;6.646;2023-02-28T00:33:10;3.70;99.90
59146;DHT22;44928;53.074;6.646;2023-02-28T00:35:36;3.70;99.90
59146;DHT22;44928;53.074;6.646;2023-02-28T00:38:01;3.70;99.90
59146;DHT22;44928;53.074;6.646;2023-02-28T00:40:28;3.70;99.90
59146;DHT22;44928;53.074;6.646;2023-02-28T00:42:54;3.70;99.90
59146;DHT22;44928;53.074;6.646;2023-02-28T00:45:20;3.70;99.90
59146;DHT22;44928;53.074;6.646;2023-02-28T00:47:46;3.70;99.90
59146;DHT22;44928;53.074;6.646;2023-02-28T00:50:18;3.70;99.90
59146;DHT22;44928;53.074;6.646;2023-02-28T00:52:45;3.70;99.90
59146;DHT22;44928;53.074;6.646;2023-02-28T00:55:11;3.60;99.90
59146;DHT22;44928;53.074;6.646;2023-02-28T00:57:37;3.60;99.90
59146;DHT22;44928;53.074;6.646;2023-02-28T01:00:04;3.60;99.90
59146;DHT22;44928;53.074;6.646;2023-02-28T01:02:30;3.60;99.90
59146;DHT22;44928;53.074;6.646;2023-02-28T01:04:56;3.70;99.90
59146;DHT22;44928;53.074;6.646;2023-02-28T01:07:23;3.70;99.90
59146;DHT22;44928;53.074;6.646;2023-02-28T01:09:49;3.70;99.90
59146;DHT22;44928;53.074;6.646;2023-02-28T01:12:15;3.70;99.90
59146;DHT22;44928;53.074;6.646;2023-02-28T01:14:41;3.70;99.90
59146;DHT22;44928;53.074;6.646;2023-02-28T01:17:07;3.70;99.90
59146;DHT22;44928;53.074;6.646;2023-02-28T01:19:33;3.60;99.90
59146;DHT22;44928;53.074;6.646;2023-02-28T01:22:03;3.60;99.90
59146;DHT22;44928;53.074;6.646;2023-02-28T01:24:29;3.60;99.90
59146;DHT22;44928;53.074;6.646;2023-02-28T01:26:55;3.60;99.90
59146;DHT22;44928;53.074;6.646;2023-02-28T01:29:21;3.60;99.90
59146;DHT22;44928;53.074;6.646;2023-02-28T01:31:47;3.60;99.90
59146;DHT22;44928;53.074;6.646;2023-02-28T01:34:12;3.70;99.90
59146;DHT22;44928;53.074;6.646;2023-02-28T01:36:38;3.70;99.90
59146;DHT22;44928;53.074;6.646;2023-02-28T01:39:04;3.70;99.90
59146;DHT22;44928;53.074;6.646;2023-02-28T01:41:32;3.70;99.90
59146;DHT22;44928;53.074;6.646;2023-02-28T01:44:07;3.70;99.90
59146;DHT22;44928;53.074;6.646;2023-02-28T01:46:35;3.70;99.90
59146;DHT22;44928;53.074;6.646;2023-02-28T01:49:15;3.70;99.90
59146;DHT22;44928;53.074;6.646;2023-02-28T01:51:54;3.80;99.90
59146;DHT22;44928;53.074;6.646;2023-02-28T01:54:24;3.80;99.90
59146;DHT22;44928;53.074;6.646;2023-02-28T01:56:58;3.80;99.90
59146;DHT22;44928;53.074;6.646;2023-02-28T02:02:04;3.80;99.90
59146;DHT22;44928;53.074;6.646;2023-02-28T02:04:54;3.80;99.90
59146;DHT22;44928;53.074;6.646;2023-02-28T02:07:20;3.80;99.90
59146;DHT22;44928;53.074;6.646;2023-02-28T02:09:46;3.80;99.90
59146;DHT22;44928;53.074;6.646;2023-02-28T02:12:36;3.80;99.90
59146;DHT22;44928;53.074;6.646;2023-02-28T02:15:16;3.80;99.90
59146;DHT22;44928;53.074;6.646;2023-02-28T02:17:45;3.80;99.90
59146;DHT22;44928;53.074;6.646;2023-02-28T02:20:51;3.80;99.90
59146;DHT22;44928;53.074;6.646;2023-02-28T02:23:30;3.80;99.90
59146;DHT22;44928;53.074;6.646;2023-02-28T02:40:10;3.80;99.90
59146;DHT22;44928;53.074;6.646;2023-02-28T02:43:11;3.80;99.90
59146;DHT22;44928;53.074;6.646;2023-02-28T02:45:41;3.80;99.90
59146;DHT22;44928;53.074;6.646;2023-02-28T02:48:13;3.80;99.90
59146;DHT22;44928;53.074;6.646;2023-02-28T02:50:47;3.80;99.90
59146;DHT22;44928;53.074;6.646;2023-02-28T02:53:16;3.80;99.90
59146;DHT22;44928;53.074;6.646;2023-02-28T02:55:47;3.90;99.90
59146;DHT22;44928;53.074;6.646;2023-02-28T02:58:23;3.80;99.90
59146;DHT22;44928;53.074;6.646;2023-02-28T03:00:57;3.80;99.90
59146;DHT22;44928;53.074;6.646;2023-02-28T03:03:24;3.90;99.90
59146;DHT22;44928;53.074;6.646;2023-02-28T03:06:00;3.90;99.90
59146;DHT22;44928;53.074;6.646;2023-02-28T03:08:28;3.90;99.90
59146;DHT22;44928;53.074;6.646;2023-02-28T03:10:59;3.90;99.90
59146;DHT22;44928;53.074;6.646;2023-02-28T03:16:49;3.80;99.90
59146;DHT22;44928;53.074;6.646;2023-02-28T03:22:21;3.80;99.90
59146;DHT22;44928;53.074;6.646;2023-02-28T03:25:07;3.80;99.90
59146;DHT22;44928;53.074;6.646;2023-02-28T03:32:42;3.80;99.90
59146;DHT22;44928;53.074;6.646;2023-02-28T03:35:18;3.80;99.90
59146;DHT22;44928;53.074;6.646;2023-02-28T03:37:53;3.80;99.90
59146;DHT22;44928;53.074;6.646;2023-02-28T03:40:24;3.80;99.90
59146;DHT22;44928;53.074;6.646;2023-02-28T03:42:55;3.80;99.90
59146;DHT22;44928;53.074;6.646;2023-02-28T03:45:29;3.70;99.90
59146;DHT22;44928;53.074;6.646;2023-02-28T03:48:20;3.80;99.90
59146;DHT22;44928;53.074;6.646;2023-02-28T03:50:49;3.80;99.90
59146;DHT22;44928;53.074;6.646;2023-02-28T03:53:36;3.70;99.90
59146;DHT22;44928;53.074;6.646;2023-02-28T03:56:18;3.70;99.90
59146;DHT22;44928;53.074;6.646;2023-02-28T04:01:31;3.70;99.90
59146;DHT22;44928;53.074;6.646;2023-02-28T04:04:01;3.70;99.90
59146;DHT22;44928;53.074;6.646;2023-02-28T04:06:27;3.70;99.90
59146;DHT22;44928;53.074;6.646;2023-02-28T04:08:55;3.60;99.90
59146;DHT22;44928;53.074;6.646;2023-02-28T04:11:42;3.60;99.90
59146;DHT22;44928;53.074;6.646;2023-02-28T04:14:09;3.60;99.90
59146;DHT22;44928;53.074;6.646;2023-02-28T04:16:36;3.60;99.90
59146;DHT22;44928;53.074;6.646;2023-02-28T04:19:03;3.60;99.90
59146;DHT22;44928;53.074;6.646;2023-02-28T04:21:34;3.60;99.90
59146;DHT22;44928;53.074;6.646;2023-02-28T04:24:00;3.60;99.90
59146;DHT22;44928;53.074;6.646;2023-02-28T04:26:30;3.50;99.90
59146;DHT22;44928;53.074;6.646;2023-02-28T04:28:57;3.50;99.90
59146;DHT22;44928;53.074;6.646;2023-02-28T04:31:23;3.50;99.90
59146;DHT22;44928;53.074;6.646;2023-02-28T04:33:48;3.50;99.90
59146;DHT22;44928;53.074;6.646;2023-02-28T04:36:14;3.50;99.90
59146;DHT22;44928;53.074;6.646;2023-02-28T04:38:43;3.50;99.90
59146;DHT22;44928;53.074;6.646;2023-02-28T04:41:09;3.50;99.90
59146;DHT22;44928;53.074;6.646;2023-02-28T04:43:35;3.50;99.90
59146;DHT22;44928;53.074;6.646;2023-02-28T04:46:03;3.50;99.90
59146;DHT22;44928;53.074;6.646;2023-02-28T04:48:30;3.50;99.90
59146;DHT22;44928;53.074;6.646;2023-02-28T04:51:10;3.40;99.90
59146;DHT22;44928;53.074;6.646;2023-02-28T04:53:38;3.40;99.90
59146;DHT22;44928;53.074;6.646;2023-02-28T04:56:05;3.40;99.90
59146;DHT22;44928;53.074;6.646;2023-02-28T04:58:32;3.40;99.90
59146;DHT22;44928;53.074;6.646;2023-02-28T05:03:42;3.40;99.90
59146;DHT22;44928;53.074;6.646;2023-02-28T05:06:10;3.40;99.90
59146;DHT22;44928;53.074;6.646;2023-02-28T05:08:36;3.40;99.90
59146;DHT22;44928;53.074;6.646;2023-02-28T05:11:02;3.30;99.90
59146;DHT22;44928;53.074;6.646;2023-02-28T05:13:28;3.30;99.90
59146;DHT22;44928;53.074;6.646;2023-02-28T05:15:55;3.30;99.90
59146;DHT22;44928;53.074;6.646;2023-02-28T05:18:21;3.30;99.90
59146;DHT22;44928;53.074;6.646;2023-02-28T05:20:47;3.30;99.90
59146;DHT22;44928;53.074;6.646;2023-02-28T05:23:13;3.30;99.90
59146;DHT22;44928;53.074;6.646;2023-02-28T05:25:40;3.20;99.90
59146;DHT22;44928;53.074;6.646;2023-02-28T05:28:06;3.20;99.90
59146;DHT22;44928;53.074;6.646;2023-02-28T05:30:32;3.20;99.90
59146;DHT22;44928;53.074;6.646;2023-02-28T05:32:58;3.20;99.90
59146;DHT22;44928;53.074;6.646;2023-02-28T05:35:26;3.20;99.90
59146;DHT22;44928;53.074;6.646;2023-02-28T05:37:52;3.10;99.90
59146;DHT22;44928;53.074;6.646;2023-02-28T05:40:18;3.10;99.90
59146;DHT22;44928;53.074;6.646;2023-02-28T05:42:46;3.10;99.90
59146;DHT22;44928;53.074;6.646;2023-02-28T05:45:12;3.00;99.90
59146;DHT22;44928;53.074;6.646;2023-02-28T05:47:38;3.00;99.90
59146;DHT22;44928;53.074;6.646;2023-02-28T05:50:05;3.00;99.90
59146;DHT22;44928;53.074;6.646;2023-02-28T05:52:31;3.00;99.90
59146;DHT22;44928;53.074;6.646;2023-02-28T05:54:57;3.00;99.90
59146;DHT22;44928;53.074;6.646;2023-02-28T05:57:23;3.00;99.90
59146;DHT22;44928;53.074;6.646;2023-02-28T05:59:49;3.00;99.90
59146;DHT22;44928;53.074;6.646;2023-02-28T06:02:17;3.00;99.90
59146;DHT22;44928;53.074;6.646;2023-02-28T06:04:43;3.00;99.90
59146;DHT22;44928;53.074;6.646;2023-02-28T06:07:10;3.00;99.90
59146;DHT22;44928;53.074;6.646;2023-02-28T06:09:36;3.00;99.90
59146;DHT22;44928;53.074;6.646;2023-02-28T06:12:04;3.00;99.90
59146;DHT22;44928;53.074;6.646;2023-02-28T06:14:32;2.90;99.90
59146;DHT22;44928;53.074;6.646;2023-02-28T06:16:59;2.90;99.90
59146;DHT22;44928;53.074;6.646;2023-02-28T06:19:26;2.90;99.90
59146;DHT22;44928;53.074;6.646;2023-02-28T06:21:53;2.90;99.90
59146;DHT22;44928;53.074;6.646;2023-02-28T06:24:19;2.90;99.90
59146;DHT22;44928;53.074;6.646;2023-02-28T06:26:45;2.90;99.90
59146;DHT22;44928;53.074;6.646;2023-02-28T06:29:11;2.90;99.90
59146;DHT22;44928;53.074;6.646;2023-02-28T06:31:37;2.90;99.90
59146;DHT22;44928;53.074;6.646;2023-02-28T06:34:04;2.90;99.90
59146;DHT22;44928;53.074;6.646;2023-02-28T06:36:30;2.80;99.90
59146;DHT22;44928;53.074;6.646;2023-02-28T06:38:56;2.80;99.90
59146;DHT22;44928;53.074;6.646;2023-02-28T06:41:26;2.80;99.90
59146;DHT22;44928;53.074;6.646;2023-02-28T06:43:52;2.80;99.90
59146;DHT22;44928;53.074;6.646;2023-02-28T06:46:18;2.80;99.90
59146;DHT22;44928;53.074;6.646;2023-02-28T06:48:45;2.80;99.90
59146;DHT22;44928;53.074;6.646;2023-02-28T06:51:14;2.80;99.90
59146;DHT22;44928;53.074;6.646;2023-02-28T06:53:41;2.80;99.90
59146;DHT22;44928;53.074;6.646;2023-02-28T06:56:09;2.90;99.90
59146;DHT22;44928;53.074;6.646;2023-02-28T06:58:35;2.90;99.90
59146;DHT22;44928;53.074;6.646;2023-02-28T07:01:01;2.90;99.90
59146;DHT22;44928;53.074;6.646;2023-02-28T07:03:28;2.90;99.90
59146;DHT22;44928;53.074;6.646;2023-02-28T07:05:53;2.90;99.90
59146;DHT22;44928;53.074;6.646;2023-02-28T07:08:22;3.00;99.90
59146;DHT22;44928;53.074;6.646;2023-02-28T07:10:52;3.00;99.90
59146;DHT22;44928;53.074;6.646;2023-02-28T07:13:18;3.00;99.90
59146;DHT22;44928;53.074;6.646;2023-02-28T07:15:44;3.00;99.90
59146;DHT22;44928;53.074;6.646;2023-02-28T07:18:10;3.00;99.90
59146;DHT22;44928;53.074;6.646;2023-02-28T07:20:36;3.00;99.90
59146;DHT22;44928;53.074;6.646;2023-02-28T07:23:01;3.00;99.90
59146;DHT22;44928;53.074;6.646;2023-02-28T07:25:28;3.00;99.90
59146;DHT22;44928;53.074;6.646;2023-02-28T07:27:55;3.00;99.90
59146;DHT22;44928;53.074;6.646;2023-02-28T07:30:21;3.00;99.90
59146;DHT22;44928;53.074;6.646;2023-02-28T07:32:47;3.00;99.90
59146;DHT22;44928;53.074;6.646;2023-02-28T07:35:13;3.00;99.90
59146;DHT22;44928;53.074;6.646;2023-02-28T07:37:42;3.00;99.90
59146;DHT22;44928;53.074;6.646;2023-02-28T07:40:09;3.00;99.90
59146;DHT22;44928;53.074;6.646;2023-02-28T07:42:39;3.00;99.90
59146;DHT22;44928;53.074;6.646;2023-02-28T07:45:06;3.00;99.90
59146;DHT22;44928;53.074;6.646;2023-02-28T07:47:32;3.00;99.90
59146;DHT22;44928;53.074;6.646;2023-02-28T07:49:58;3.00;99.90
59146;DHT22;44928;53.074;6.646;2023-02-28T07:52:24;3.00;99.90
59146;DHT22;44928;53.074;6.646;2023-02-28T07:54:51;3.00;99.90
59146;DHT22;44928;53.074;6.646;2023-02-28T07:57:17;3.00;99.90
59146;DHT22;44928;53.074;6.646;2023-02-28T07:59:43;3.00;99.90
59146;DHT22;44928;53.074;6.646;2023-02-28T08:02:15;3.00;99.90
59146;DHT22;44928;53.074;6.646;2023-02-28T08:04:41;3.00;99.90
59146;DHT22;44928;53.074;6.646;2023-02-28T08:07:07;3.00;99.90
59146;DHT22;44928;53.074;6.646;2023-02-28T08:09:33;3.10;99.90
59146;DHT22;44928;53.074;6.646;2023-02-28T08:11:59;3.10;99.90
59146;DHT22;44928;53.074;6.646;2023-02-28T08:14:25;3.20;99.90
59146;DHT22;44928;53.074;6.646;2023-02-28T08:19:31;3.20;99.90
59146;DHT22;44928;53.074;6.646;2023-02-28T08:21:57;3.20;99.90
59146;DHT22;44928;53.074;6.646;2023-02-28T08:24:23;3.30;99.90
59146;DHT22;44928;53.074;6.646;2023-02-28T08:26:49;3.30;99.90
59146;DHT22;44928;53.074;6.646;2023-02-28T08:29:15;3.30;99.90
59146;DHT22;44928;53.074;6.646;2023-02-28T08:31:41;3.40;99.90
59146;DHT22;44928;53.074;6.646;2023-02-28T08:34:09;3.40;99.90
59146;DHT22;44928;53.074;6.646;2023-02-28T08:36:36;3.40;99.90
59146;DHT22;44928;53.074;6.646;2023-02-28T08:39:02;3.40;99.90
59146;DHT22;44928;53.074;6.646;2023-02-28T08:41:28;3.50;99.90
59146;DHT22;44928;53.074;6.646;2023-02-28T08:43:54;3.50;99.90
59146;DHT22;44928;53.074;6.646;2023-02-28T08:46:20;3.60;99.90
59146;DHT22;44928;53.074;6.646;2023-02-28T08:48:46;3.60;99.90
59146;DHT22;44928;53.074;6.646;2023-02-28T08:51:30;3.70;99.90
59146;DHT22;44928;53.074;6.646;2023-02-28T08:53:59;3.70;99.90
59146;DHT22;44928;53.074;6.646;2023-02-28T08:56:26;3.80;99.90
59146;DHT22;44928;53.074;6.646;2023-02-28T08:58:55;3.70;99.90
59146;DHT22;44928;53.074;6.646;2023-02-28T09:01:26;3.70;99.90
59146;DHT22;44928;53.074;6.646;2023-02-28T09:03:53;3.70;99.90
59146;DHT22;44928;53.074;6.646;2023-02-28T09:06:21;3.70;99.90
59146;DHT22;44928;53.074;6.646;2023-02-28T09:08:47;3.80;99.90
59146;DHT22;44928;53.074;6.646;2023-02-28T09:11:13;3.90;99.90
59146;DHT22;44928;53.074;6.646;2023-02-28T09:13:40;4.00;99.90
59146;DHT22;44928;53.074;6.646;2023-02-28T09:16:07;4.00;99.90
59146;DHT22;44928;53.074;6.646;2023-02-28T09:18:35;4.00;99.90
59146;DHT22;44928;53.074;6.646;2023-02-28T09:21:08;4.00;99.90
59146;DHT22;44928;53.074;6.646;2023-02-28T09:23:35;4.00;99.90
59146;DHT22;44928;53.074;6.646;2023-02-28T09:26:03;4.00;99.90
59146;DHT22;44928;53.074;6.646;2023-02-28T09:28:29;4.10;99.90
59146;DHT22;44928;53.074;6.646;2023-02-28T09:30:55;4.10;99.90
59146;DHT22;44928;53.074;6.646;2023-02-28T09:33:23;4.20;99.90
59146;DHT22;44928;53.074;6.646;2023-02-28T09:35:49;4.20;99.90
59146;DHT22;44928;53.074;6.646;2023-02-28T09:38:16;4.20;99.90
59146;DHT22;44928;53.074;6.646;2023-02-28T09:41:04;4.20;99.90
59146;DHT22;44928;53.074;6.646;2023-02-28T09:43:38;4.20;99.90
59146;DHT22;44928;53.074;6.646;2023-02-28T09:46:28;4.20;99.90
59146;DHT22;44928;53.074;6.646;2023-02-28T09:48:56;4.20;99.90
59146;DHT22;44928;53.074;6.646;2023-02-28T09:51:31;4.30;99.90
59146;DHT22;44928;53.074;6.646;2023-02-28T09:53:58;4.30;99.90
59146;DHT22;44928;53.074;6.646;2023-02-28T09:56:30;4.30;99.90
59146;DHT22;44928;53.074;6.646;2023-02-28T10:04:48;4.50;99.90
59146;DHT22;44928;53.074;6.646;2023-02-28T10:10:24;4.60;99.90
59146;DHT22;44928;53.074;6.646;2023-02-28T10:12:54;4.60;99.90
59146;DHT22;44928;53.074;6.646;2023-02-28T10:15:23;4.70;99.90
59146;DHT22;44928;53.074;6.646;2023-02-28T10:17:54;4.70;99.90
59146;DHT22;44928;53.074;6.646;2023-02-28T10:20:23;4.80;99.90
59146;DHT22;44928;53.074;6.646;2023-02-28T10:25:35;4.80;99.90
59146;DHT22;44928;53.074;6.646;2023-02-28T10:28:13;4.80;99.90
59146;DHT22;44928;53.074;6.646;2023-02-28T10:30:43;4.80;99.90
59146;DHT22;44928;53.074;6.646;2023-02-28T10:33:29;4.90;99.90
59146;DHT22;44928;53.074;6.646;2023-02-28T10:35:56;4.90;99.90
59146;DHT22;44928;53.074;6.646;2023-02-28T10:38:31;4.90;99.90
59146;DHT22;44928;53.074;6.646;2023-02-28T10:41:09;5.00;99.90
59146;DHT22;44928;53.074;6.646;2023-02-28T10:43:37;5.10;99.90
59146;DHT22;44928;53.074;6.646;2023-02-28T10:48:40;5.20;99.90
59146;DHT22;44928;53.074;6.646;2023-02-28T10:51:19;5.40;99.90
59146;DHT22;44928;53.074;6.646;2023-02-28T10:53:51;5.50;99.90
59146;DHT22;44928;53.074;6.646;2023-02-28T10:56:19;5.50;99.90
59146;DHT22;44928;53.074;6.646;2023-02-28T10:59:20;5.70;99.90
59146;DHT22;44928;53.074;6.646;2023-02-28T11:01:48;5.80;99.90
59146;DHT22;44928;53.074;6.646;2023-02-28T11:04:34;5.90;99.90
59146;DHT22;44928;53.074;6.646;2023-02-28T11:07:18;6.10;99.90
59146;DHT22;44928;53.074;6.646;2023-02-28T11:09:52;6.10;99.90
59146;DHT22;44928;53.074;6.646;2023-02-28T11:12:29;6.20;99.90
59146;DHT22;44928;53.074;6.646;2023-02-28T11:14:58;6.20;99.90
59146;DHT22;44928;53.074;6.646;2023-02-28T11:17:30;6.20;99.90
59146;DHT22;44928;53.074;6.646;2023-02-28T11:20:03;6.20;99.90
59146;DHT22;44928;53.074;6.646;2023-02-28T11:22:34;6.30;99.90
59146;DHT22;44928;53.074;6.646;2023-02-28T11:25:24;6.50;99.90
59146;DHT22;44928;53.074;6.646;2023-02-28T11:27:53;6.70;99.90
59146;DHT22;44928;53.074;6.646;2023-02-28T11:30:31;6.70;99.90
59146;DHT22;44928;53.074;6.646;2023-02-28T11:32:58;6.80;99.90
59146;DHT22;44928;53.074;6.646;2023-02-28T11:35:33;6.80;99.90
59146;DHT22;44928;53.074;6.646;2023-02-28T11:38:02;6.80;99.90
59146;DHT22;44928;53.074;6.646;2023-02-28T11:52:06;6.70;99.90
59146;DHT22;44928;53.074;6.646;2023-02-28T11:57:39;6.60;99.90
59146;DHT22;44928;53.074;6.646;2023-02-28T12:00:16;6.60;99.90
59146;DHT22;44928;53.074;6.646;2023-02-28T12:06:27;6.60;99.90
59146;DHT22;44928;53.074;6.646;2023-02-28T12:14:22;6.90;99.90
59146;DHT22;44928;53.074;6.646;2023-02-28T12:17:11;6.90;99.90
59146;DHT22;44928;53.074;6.646;2023-02-28T12:27:39;7.50;99.90
59146;DHT22;44928;53.074;6.646;2023-02-28T12:30:08;7.70;99.90
59146;DHT22;44928;53.074;6.646;2023-02-28T12:32:45;7.80;99.90
59146;DHT22;44928;53.074;6.646;2023-02-28T12:35:25;8.00;99.90
59146;DHT22;44928;53.074;6.646;2023-02-28T12:38:17;8.20;99.90
59146;DHT22;44928;53.074;6.646;2023-02-28T12:41:00;8.20;99.90
59146;DHT22;44928;53.074;6.646;2023-02-28T12:43:34;8.30;99.90
59146;DHT22;44928;53.074;6.646;2023-02-28T12:48:55;8.40;99.90
59146;DHT22;44928;53.074;6.646;2023-02-28T12:51:23;8.60;99.90
59146;DHT22;44928;53.074;6.646;2023-02-28T13:10:04;10.10;99.90
59146;DHT22;44928;53.074;6.646;2023-02-28T13:12:33;10.30;99.90
59146;DHT22;44928;53.074;6.646;2023-02-28T13:15:13;10.50;99.90
59146;DHT22;44928;53.074;6.646;2023-02-28T13:17:42;10.60;99.90
59146;DHT22;44928;53.074;6.646;2023-02-28T13:20:25;10.80;99.90
59146;DHT22;44928;53.074;6.646;2023-02-28T13:22:53;11.20;99.90
59146;DHT22;44928;53.074;6.646;2023-02-28T13:27:55;11.80;99.90
59146;DHT22;44928;53.074;6.646;2023-02-28T13:44:22;11.30;98.10
59146;DHT22;44928;53.074;6.646;2023-02-28T13:57:40;11.00;97.20
59146;DHT22;44928;53.074;6.646;2023-02-28T14:05:40;10.30;99.90
59146;DHT22;44928;53.074;6.646;2023-02-28T14:08:19;10.20;99.90
59146;DHT22;44928;53.074;6.646;2023-02-28T14:10:52;10.00;99.90
59146;DHT22;44928;53.074;6.646;2023-02-28T14:13:43;9.80;99.90
59146;DHT22;44928;53.074;6.646;2023-02-28T14:16:23;9.60;99.90
59146;DHT22;44928;53.074;6.646;2023-02-28T14:18:51;9.50;99.90
59146;DHT22;44928;53.074;6.646;2023-02-28T14:21:24;9.40;99.90
59146;DHT22;44928;53.074;6.646;2023-02-28T14:26:36;9.40;99.90
59146;DHT22;44928;53.074;6.646;2023-02-28T14:29:50;9.60;99.90
59146;DHT22;44928;53.074;6.646;2023-02-28T14:37:53;10.70;99.90
59146;DHT22;44928;53.074;6.646;2023-02-28T14:40:35;11.00;98.70
59146;DHT22;44928;53.074;6.646;2023-02-28T14:43:06;11.10;96.00
59146;DHT22;44928;53.074;6.646;2023-02-28T14:45:34;11.20;96.00
59146;DHT22;44928;53.074;6.646;2023-02-28T14:48:02;11.30;94.70
59146;DHT22;44928;53.074;6.646;2023-02-28T14:50:33;11.50;94.60
59146;DHT22;44928;53.074;6.646;2023-02-28T14:52:59;11.70;92.70
59146;DHT22;44928;53.074;6.646;2023-02-28T14:55:32;11.90;88.40
59146;DHT22;44928;53.074;6.646;2023-02-28T14:58:01;11.80;87.30
59146;DHT22;44928;53.074;6.646;2023-02-28T15:00:36;11.70;87.60
59146;DHT22;44928;53.074;6.646;2023-02-28T15:03:20;11.50;91.30
59146;DHT22;44928;53.074;6.646;2023-02-28T15:06:04;11.30;94.40
59146;DHT22;44928;53.074;6.646;2023-02-28T15:08:31;11.00;92.90
59146;DHT22;44928;53.074;6.646;2023-02-28T15:11:18;10.80;97.00
59146;DHT22;44928;53.074;6.646;2023-02-28T15:13:51;10.70;96.80
59146;DHT22;44928;53.074;6.646;2023-02-28T15:23:55;10.80;97.50
59146;DHT22;44928;53.074;6.646;2023-02-28T15:26:27;10.80;96.60
59146;DHT22;44928;53.074;6.646;2023-02-28T15:28:59;10.70;95.60
59146;DHT22;44928;53.074;6.646;2023-02-28T15:31:32;10.70;95.00
59146;DHT22;44928;53.074;6.646;2023-02-28T15:34:03;10.70;92.50
59146;DHT22;44928;53.074;6.646;2023-02-28T15:36:32;10.60;95.70
59146;DHT22;44928;53.074;6.646;2023-02-28T15:39:00;10.60;96.30
59146;DHT22;44928;53.074;6.646;2023-02-28T15:41:35;10.70;95.00
59146;DHT22;44928;53.074;6.646;2023-02-28T15:44:24;10.70;92.60
59146;DHT22;44928;53.074;6.646;2023-02-28T15:47:04;10.90;94.00
59146;DHT22;44928;53.074;6.646;2023-02-28T15:49:56;11.20;93.00
59146;DHT22;44928;53.074;6.646;2023-02-28T15:52:38;11.30;90.90
59146;DHT22;44928;53.074;6.646;2023-02-28T15:55:21;11.50;90.90
59146;DHT22;44928;53.074;6.646;2023-02-28T15:57:51;11.50;92.60
59146;DHT22;44928;53.074;6.646;2023-02-28T16:00:24;11.60;90.50
59146;DHT22;44928;53.074;6.646;2023-02-28T16:02:50;11.60;86.20
59146;DHT22;44928;53.074;6.646;2023-02-28T16:05:23;11.50;86.40
59146;DHT22;44928;53.074;6.646;2023-02-28T16:07:55;11.50;87.30
59146;DHT22;44928;53.074;6.646;2023-02-28T16:10:22;11.50;89.10
59146;DHT22;44928;53.074;6.646;2023-02-28T16:12:56;11.60;86.70
59146;DHT22;44928;53.074;6.646;2023-02-28T16:15:23;11.50;87.30
59146;DHT22;44928;53.074;6.646;2023-02-28T16:17:52;11.20;89.80
59146;DHT22;44928;53.074;6.646;2023-02-28T16:20:29;11.00;96.10
59146;DHT22;44928;53.074;6.646;2023-02-28T16:22:55;10.90;96.90
59146;DHT22;44928;53.074;6.646;2023-02-28T16:25:33;10.70;97.10
59146;DHT22;44928;53.074;6.646;2023-02-28T16:27:59;10.50;96.90
59146;DHT22;44928;53.074;6.646;2023-02-28T16:30:28;10.20;98.30
59146;DHT22;44928;53.074;6.646;2023-02-28T16:32:57;9.90;99.00
59146;DHT22;44928;53.074;6.646;2023-02-28T16:35:23;9.70;99.90
59146;DHT22;44928;53.074;6.646;2023-02-28T16:37:52;9.40;99.90
59146;DHT22;44928;53.074;6.646;2023-02-28T16:40:21;9.20;99.90
59146;DHT22;44928;53.074;6.646;2023-02-28T16:42:53;9.00;99.90
59146;DHT22;44928;53.074;6.646;2023-02-28T16:45:25;8.90;99.90
59146;DHT22;44928;53.074;6.646;2023-02-28T16:47:51;8.80;99.90
59146;DHT22;44928;53.074;6.646;2023-02-28T16:50:20;8.70;99.90
59146;DHT22;44928;53.074;6.646;2023-02-28T16:52:47;8.60;99.90
59146;DHT22;44928;53.074;6.646;2023-02-28T16:55:15;8.50;99.90
59146;DHT22;44928;53.074;6.646;2023-02-28T16:57:42;8.40;99.90
59146;DHT22;44928;53.074;6.646;2023-02-28T17:00:13;8.30;99.90
59146;DHT22;44928;53.074;6.646;2023-02-28T17:02:39;8.30;99.90
59146;DHT22;44928;53.074;6.646;2023-02-28T17:05:05;8.20;99.90
59146;DHT22;44928;53.074;6.646;2023-02-28T17:07:32;8.10;99.90
59146;DHT22;44928;53.074;6.646;2023-02-28T17:09:58;7.90;99.90
59146;DHT22;44928;53.074;6.646;2023-02-28T17:12:26;7.80;99.90
59146;DHT22;44928;53.074;6.646;2023-02-28T17:14:51;7.60;99.90
59146;DHT22;44928;53.074;6.646;2023-02-28T17:17:20;7.50;99.90
59146;DHT22;44928;53.074;6.646;2023-02-28T17:19:47;7.40;99.90
59146;DHT22;44928;53.074;6.646;2023-02-28T17:22:13;7.30;99.90
59146;DHT22;44928;53.074;6.646;2023-02-28T17:24:39;7.30;99.90
59146;DHT22;44928;53.074;6.646;2023-02-28T17:27:05;7.20;99.90
59146;DHT22;44928;53.074;6.646;2023-02-28T17:29:33;7.10;99.90
59146;DHT22;44928;53.074;6.646;2023-02-28T17:31:58;6.90;99.90
59146;DHT22;44928;53.074;6.646;2023-02-28T17:34:24;6.90;99.90
59146;DHT22;44928;53.074;6.646;2023-02-28T17:36:51;6.70;99.90
59146;DHT22;44928;53.074;6.646;2023-02-28T17:39:18;6.70;99.90
59146;DHT22;44928;53.074;6.646;2023-02-28T17:41:55;6.50;99.90
59146;DHT22;44928;53.074;6.646;2023-02-28T17:44:22;6.50;99.90
59146;DHT22;44928;53.074;6.646;2023-02-28T17:46:49;6.30;99.90
59146;DHT22;44928;53.074;6.646;2023-02-28T17:49:17;6.20;99.90
59146;DHT22;44928;53.074;6.646;2023-02-28T17:51:43;6.10;99.90
59146;DHT22;44928;53.074;6.646;2023-02-28T17:54:08;5.90;99.90
59146;DHT22;44928;53.074;6.646;2023-02-28T17:56:34;5.80;99.90
59146;DHT22;44928;53.074;6.646;2023-02-28T17:59:00;5.60;99.90
59146;DHT22;44928;53.074;6.646;2023-02-28T18:01:26;5.50;99.90
59146;DHT22;44928;53.074;6.646;2023-02-28T18:03:53;5.40;99.90
59146;DHT22;44928;53.074;6.646;2023-02-28T18:08:47;5.20;99.90
59146;DHT22;44928;53.074;6.646;2023-02-28T18:11:13;5.20;99.90
59146;DHT22;44928;53.074;6.646;2023-02-28T18:13:49;5.10;99.90
59146;DHT22;44928;53.074;6.646;2023-02-28T18:16:17;5.00;99.90
59146;DHT22;44928;53.074;6.646;2023-02-28T18:18:43;5.00;99.90
59146;DHT22;44928;53.074;6.646;2023-02-28T18:21:11;4.90;99.90
59146;DHT22;44928;53.074;6.646;2023-02-28T18:23:37;4.90;99.90
59146;DHT22;44928;53.074;6.646;2023-02-28T18:26:10;4.80;99.90
59146;DHT22;44928;53.074;6.646;2023-02-28T18:28:35;4.80;99.90
59146;DHT22;44928;53.074;6.646;2023-02-28T18:31:06;4.70;99.90
59146;DHT22;44928;53.074;6.646;2023-02-28T18:33:31;4.70;99.90
59146;DHT22;44928;53.074;6.646;2023-02-28T18:35:57;4.50;99.90